sensor_id;sensor_type;location;lat;lon;timestamp;pressure;altitude;pressure_sealevel;temperature;humidity
43436;BME280;36399;51.444;-2.018;2023-02-14T00:01:55;102361.16;;;3.22;100.00
43436;BME280;36399;51.444;-2.018;2023-02-14T00:04:21;102366.13;;;3.19;100.00
43436;BME280;36399;51.444;-2.018;2023-02-14T00:06:47;102356.84;;;3.10;100.00
43436;BME280;36399;51.444;-2.018;2023-02-14T00:09:15;102351.44;;;3.07;100.00
43436;BME280;36399;51.444;-2.018;2023-02-14T00:11:41;102351.66;;;3.10;100.00
43436;BME280;36399;51.444;-2.018;2023-02-14T00:14:08;102354.25;;;3.10;100.00
43436;BME280;36399;51.444;-2.018;2023-02-14T00:16:53;102354.06;;;3.19;100.00
43436;BME280;36399;51.444;-2.018;2023-02-14T00:19:19;102348.75;;;3.17;100.00
43436;BME280;36399;51.444;-2.018;2023-02-14T00:21:46;102358.13;;;3.15;100.00
43436;BME280;36399;51.444;-2.018;2023-02-14T00:24:24;102357.53;;;3.20;100.00
43436;BME280;36399;51.444;-2.018;2023-02-14T00:26:51;102358.66;;;3.23;100.00
43436;BME280;36399;51.444;-2.018;2023-02-14T00:29:26;102352.34;;;3.31;100.00
43436;BME280;36399;51.444;-2.018;2023-02-14T00:31:52;102357.06;;;3.37;100.00
43436;BME280;36399;51.444;-2.018;2023-02-14T00:34:18;102355.25;;;3.36;100.00
43436;BME280;36399;51.444;-2.018;2023-02-14T00:36:45;102357.38;;;3.41;100.00
43436;BME280;36399;51.444;-2.018;2023-02-14T00:39:12;102358.97;;;3.39;100.00
43436;BME280;36399;51.444;-2.018;2023-02-14T00:41:39;102352.53;;;3.46;100.00
43436;BME280;36399;51.444;-2.018;2023-02-14T00:44:07;102359.75;;;3.50;100.00
43436;BME280;36399;51.444;-2.018;2023-02-14T00:46:33;102343.69;;;3.56;100.00
43436;BME280;36399;51.444;-2.018;2023-02-14T00:48:59;102343.00;;;3.58;100.00
43436;BME280;36399;51.444;-2.018;2023-02-14T00:51:26;102343.00;;;3.58;100.00
43436;BME280;36399;51.444;-2.018;2023-02-14T00:53:52;102343.00;;;3.58;100.00
43436;BME280;36399;51.444;-2.018;2023-02-14T00:56:18;102339.19;;;3.53;100.00
43436;BME280;36399;51.444;-2.018;2023-02-14T00:58:45;102342.72;;;3.42;100.00
43436;BME280;36399;51.444;-2.018;2023-02-14T01:01:12;102342.72;;;3.42;100.00
43436;BME280;36399;51.444;-2.018;2023-02-14T01:03:38;102347.78;;;3.40;100.00
43436;BME280;36399;51.444;-2.018;2023-02-14T01:06:04;102345.31;;;3.42;100.00
43436;BME280;36399;51.444;-2.018;2023-02-14T01:08:30;102343.25;;;3.49;100.00
43436;BME280;36399;51.444;-2.018;2023-02-14T01:10:56;102337.63;;;3.43;100.00
43436;BME280;36399;51.444;-2.018;2023-02-14T01:13:23;102341.13;;;3.44;100.00
43436;BME280;36399;51.444;-2.018;2023-02-14T01:15:50;102348.00;;;3.43;100.00
43436;BME280;36399;51.444;-2.018;2023-02-14T01:18:17;102355.66;;;3.54;100.00
43436;BME280;36399;51.444;-2.018;2023-02-14T01:20:44;102333.13;;;3.41;100.00
43436;BME280;36399;51.444;-2.018;2023-02-14T01:23:10;102349.94;;;3.46;100.00
43436;BME280;36399;51.444;-2.018;2023-02-14T01:25:37;102343.66;;;3.31;100.00
43436;BME280;36399;51.444;-2.018;2023-02-14T01:28:04;102345.59;;;3.22;100.00
43436;BME280;36399;51.444;-2.018;2023-02-14T01:30:30;102352.47;;;2.98;100.00
43436;BME280;36399;51.444;-2.018;2023-02-14T01:32:56;102345.81;;;2.78;100.00
43436;BME280;36399;51.444;-2.018;2023-02-14T01:35:23;102348.91;;;2.50;100.00
43436;BME280;36399;51.444;-2.018;2023-02-14T01:37:49;102355.16;;;2.64;100.00
43436;BME280;36399;51.444;-2.018;2023-02-14T01:40:15;102349.88;;;2.63;100.00
43436;BME280;36399;51.444;-2.018;2023-02-14T01:42:42;102350.50;;;2.48;100.00
43436;BME280;36399;51.444;-2.018;2023-02-14T01:45:18;102347.53;;;2.32;100.00
43436;BME280;36399;51.444;-2.018;2023-02-14T01:47:46;102356.50;;;2.14;100.00
43436;BME280;36399;51.444;-2.018;2023-02-14T01:50:20;102353.56;;;2.09;100.00
43436;BME280;36399;51.444;-2.018;2023-02-14T01:52:52;102359.22;;;1.94;100.00
43436;BME280;36399;51.444;-2.018;2023-02-14T01:55:22;102359.72;;;1.78;100.00
43436;BME280;36399;51.444;-2.018;2023-02-14T01:57:57;102356.78;;;1.73;100.00
43436;BME280;36399;51.444;-2.018;2023-02-14T02:00:24;102354.25;;;1.63;100.00
43436;BME280;36399;51.444;-2.018;2023-02-14T02:03:09;102351.38;;;1.70;100.00
43436;BME280;36399;51.444;-2.018;2023-02-14T02:05:41;102360.38;;;1.75;100.00
43436;BME280;36399;51.444;-2.018;2023-02-14T02:08:09;102366.69;;;2.01;100.00
43436;BME280;36399;51.444;-2.018;2023-02-14T02:10:35;102360.97;;;2.38;100.00
43436;BME280;36399;51.444;-2.018;2023-02-14T02:13:04;102371.03;;;2.57;100.00
43436;BME280;36399;51.444;-2.018;2023-02-14T02:15:41;102374.47;;;2.91;100.00
43436;BME280;36399;51.444;-2.018;2023-02-14T02:24:06;102384.81;;;3.38;100.00
43436;BME280;36399;51.444;-2.018;2023-02-14T02:26:55;102368.97;;;3.58;100.00
43436;BME280;36399;51.444;-2.018;2023-02-14T02:35:14;102390.97;;;3.75;100.00
43436;BME280;36399;51.444;-2.018;2023-02-14T02:38:15;102388.69;;;3.79;100.00
43436;BME280;36399;51.444;-2.018;2023-02-14T02:41:22;102386.31;;;3.83;100.00
43436;BME280;36399;51.444;-2.018;2023-02-14T02:43:56;102392.25;;;3.93;100.00
43436;BME280;36399;51.444;-2.018;2023-02-14T02:46:31;102393.31;;;3.84;100.00
43436;BME280;36399;51.444;-2.018;2023-02-14T02:58:54;102388.56;;;3.90;100.00
43436;BME280;36399;51.444;-2.018;2023-02-14T03:01:25;102393.31;;;3.84;100.00
43436;BME280;36399;51.444;-2.018;2023-02-14T03:03:59;102386.53;;;3.86;100.00
43436;BME280;36399;51.444;-2.018;2023-02-14T03:06:45;102373.84;;;4.15;100.00
43436;BME280;36399;51.444;-2.018;2023-02-14T03:12:03;102380.22;;;4.07;100.00
43436;BME280;36399;51.444;-2.018;2023-02-14T03:14:45;102375.66;;;4.16;100.00
43436;BME280;36399;51.444;-2.018;2023-02-14T03:17:26;102380.03;;;4.29;100.00
43436;BME280;36399;51.444;-2.018;2023-02-14T03:20:16;102375.94;;;4.32;100.00
43436;BME280;36399;51.444;-2.018;2023-02-14T03:23:08;102378.97;;;4.38;100.00
43436;BME280;36399;51.444;-2.018;2023-02-14T03:25:41;102375.19;;;4.47;100.00
43436;BME280;36399;51.444;-2.018;2023-02-14T03:31:23;102374.69;;;4.52;100.00
43436;BME280;36399;51.444;-2.018;2023-02-14T03:33:59;102370.38;;;4.53;100.00
43436;BME280;36399;51.444;-2.018;2023-02-14T03:36:40;102374.78;;;4.54;100.00
43436;BME280;36399;51.444;-2.018;2023-02-14T03:39:25;102377.38;;;4.54;100.00
43436;BME280;36399;51.444;-2.018;2023-02-14T03:42:18;102377.38;;;4.54;100.00
43436;BME280;36399;51.444;-2.018;2023-02-14T03:44:48;102377.38;;;4.54;100.00
43436;BME280;36399;51.444;-2.018;2023-02-14T03:47:19;102376.00;;;4.59;100.00
43436;BME280;36399;51.444;-2.018;2023-02-14T03:49:51;102371.66;;;4.71;100.00
43436;BME280;36399;51.444;-2.018;2023-02-14T03:52:19;102371.69;;;4.59;100.00
43436;BME280;36399;51.444;-2.018;2023-02-14T03:54:48;102381.00;;;4.56;100.00
43436;BME280;36399;51.444;-2.018;2023-02-14T03:57:26;102375.06;;;4.70;100.00
43436;BME280;36399;51.444;-2.018;2023-02-14T03:59:54;102371.91;;;4.62;100.00
43436;BME280;36399;51.444;-2.018;2023-02-14T04:02:30;102370.06;;;4.73;100.00
43436;BME280;36399;51.444;-2.018;2023-02-14T04:04:59;102375.25;;;4.73;100.00
43436;BME280;36399;51.444;-2.018;2023-02-14T04:07:27;102369.34;;;4.75;100.00
43436;BME280;36399;51.444;-2.018;2023-02-14T04:09:53;102366.84;;;4.77;100.00
43436;BME280;36399;51.444;-2.018;2023-02-14T04:12:19;102358.84;;;4.74;100.00
43436;BME280;36399;51.444;-2.018;2023-02-14T04:14:45;102361.66;;;4.77;100.00
43436;BME280;36399;51.444;-2.018;2023-02-14T04:17:11;102360.53;;;4.73;100.00
43436;BME280;36399;51.444;-2.018;2023-02-14T04:19:55;102351.03;;;4.74;100.00
43436;BME280;36399;51.444;-2.018;2023-02-14T04:22:21;102352.34;;;4.81;100.00
43436;BME280;36399;51.444;-2.018;2023-02-14T04:24:47;102363.16;;;4.87;100.00
43436;BME280;36399;51.444;-2.018;2023-02-14T04:27:13;102359.25;;;4.93;100.00
43436;BME280;36399;51.444;-2.018;2023-02-14T04:29:44;102363.84;;;4.97;100.00
43436;BME280;36399;51.444;-2.018;2023-02-14T04:32:17;102354.25;;;4.96;100.00
43436;BME280;36399;51.444;-2.018;2023-02-14T04:34:43;102366.66;;;5.00;100.00
43436;BME280;36399;51.444;-2.018;2023-02-14T04:37:10;102365.06;;;5.02;100.00
43436;BME280;36399;51.444;-2.018;2023-02-14T04:39:36;102355.63;;;5.04;100.00
43436;BME280;36399;51.444;-2.018;2023-02-14T04:42:03;102360.25;;;5.08;100.00
43436;BME280;36399;51.444;-2.018;2023-02-14T04:44:29;102361.63;;;5.17;100.00
43436;BME280;36399;51.444;-2.018;2023-02-14T04:46:56;102365.84;;;5.15;100.00
43436;BME280;36399;51.444;-2.018;2023-02-14T04:49:21;102372.66;;;5.13;100.00
43436;BME280;36399;51.444;-2.018;2023-02-14T04:51:47;102373.25;;;5.08;100.00
43436;BME280;36399;51.444;-2.018;2023-02-14T04:54:13;102378.50;;;5.22;100.00
43436;BME280;36399;51.444;-2.018;2023-02-14T04:56:39;102387.31;;;5.24;100.00
43436;BME280;36399;51.444;-2.018;2023-02-14T04:59:05;102380.38;;;5.37;100.00
43436;BME280;36399;51.444;-2.018;2023-02-14T05:01:31;102373.16;;;5.33;100.00
43436;BME280;36399;51.444;-2.018;2023-02-14T05:03:57;102372.28;;;5.33;100.00
43436;BME280;36399;51.444;-2.018;2023-02-14T05:06:23;102378.06;;;5.42;100.00
43436;BME280;36399;51.444;-2.018;2023-02-14T05:08:49;102385.91;;;5.29;100.00
43436;BME280;36399;51.444;-2.018;2023-02-14T05:11:15;102379.56;;;5.38;100.00
43436;BME280;36399;51.444;-2.018;2023-02-14T05:13:41;102391.50;;;5.35;100.00
43436;BME280;36399;51.444;-2.018;2023-02-14T05:16:07;102386.28;;;5.35;100.00
43436;BME280;36399;51.444;-2.018;2023-02-14T05:18:33;102377.47;;;5.33;100.00
43436;BME280;36399;51.444;-2.018;2023-02-14T05:20:59;102379.09;;;5.31;100.00
43436;BME280;36399;51.444;-2.018;2023-02-14T05:23:25;102380.88;;;5.32;100.00
43436;BME280;36399;51.444;-2.018;2023-02-14T05:25:51;102384.16;;;5.43;100.00
43436;BME280;36399;51.444;-2.018;2023-02-14T05:28:18;102381.66;;;5.44;100.00
43436;BME280;36399;51.444;-2.018;2023-02-14T05:30:44;102372.66;;;5.39;100.00
43436;BME280;36399;51.444;-2.018;2023-02-14T05:33:10;102371.66;;;5.37;100.00
43436;BME280;36399;51.444;-2.018;2023-02-14T05:35:36;102362.75;;;5.33;100.00
43436;BME280;36399;51.444;-2.018;2023-02-14T05:38:02;102356.41;;;5.43;100.00
43436;BME280;36399;51.444;-2.018;2023-02-14T05:40:29;102367.53;;;5.41;100.00
43436;BME280;36399;51.444;-2.018;2023-02-14T05:42:55;102376.03;;;5.51;100.00
43436;BME280;36399;51.444;-2.018;2023-02-14T05:45:22;102377.16;;;5.42;100.00
43436;BME280;36399;51.444;-2.018;2023-02-14T05:47:48;102367.03;;;5.46;100.00
43436;BME280;36399;51.444;-2.018;2023-02-14T05:50:15;102373.66;;;5.41;100.00
43436;BME280;36399;51.444;-2.018;2023-02-14T05:52:41;102376.06;;;5.38;100.00
43436;BME280;36399;51.444;-2.018;2023-02-14T05:55:08;102375.66;;;5.45;100.00
43436;BME280;36399;51.444;-2.018;2023-02-14T05:57:34;102373.44;;;5.51;100.00
43436;BME280;36399;51.444;-2.018;2023-02-14T06:00:00;102378.66;;;5.51;100.00
43436;BME280;36399;51.444;-2.018;2023-02-14T06:02:26;102383.66;;;5.48;100.00
43436;BME280;36399;51.444;-2.018;2023-02-14T06:04:52;102379.03;;;5.57;100.00
43436;BME280;36399;51.444;-2.018;2023-02-14T06:07:18;102386.56;;;5.53;100.00
43436;BME280;36399;51.444;-2.018;2023-02-14T06:09:44;102388.06;;;5.49;100.00
43436;BME280;36399;51.444;-2.018;2023-02-14T06:12:10;102380.63;;;5.55;100.00
43436;BME280;36399;51.444;-2.018;2023-02-14T06:14:36;102384.03;;;5.54;100.00
43436;BME280;36399;51.444;-2.018;2023-02-14T06:17:02;102385.16;;;5.58;100.00
43436;BME280;36399;51.444;-2.018;2023-02-14T06:19:28;102381.22;;;5.64;100.00
43436;BME280;36399;51.444;-2.018;2023-02-14T06:21:54;102384.03;;;5.54;100.00
43436;BME280;36399;51.444;-2.018;2023-02-14T06:24:20;102384.53;;;5.62;100.00
43436;BME280;36399;51.444;-2.018;2023-02-14T06:26:46;102384.81;;;5.66;100.00
43436;BME280;36399;51.444;-2.018;2023-02-14T06:29:11;102387.13;;;5.62;100.00
43436;BME280;36399;51.444;-2.018;2023-02-14T06:31:37;102385.72;;;5.67;100.00
43436;BME280;36399;51.444;-2.018;2023-02-14T06:34:03;102388.22;;;5.65;100.00
43436;BME280;36399;51.444;-2.018;2023-02-14T06:36:29;102391.97;;;5.56;100.00
43436;BME280;36399;51.444;-2.018;2023-02-14T06:38:55;102390.53;;;5.61;100.00
43436;BME280;36399;51.444;-2.018;2023-02-14T06:41:21;102396.88;;;5.51;100.00
43436;BME280;36399;51.444;-2.018;2023-02-14T06:43:47;102393.06;;;5.59;100.00
43436;BME280;36399;51.444;-2.018;2023-02-14T06:46:14;102404.19;;;5.57;100.00
43436;BME280;36399;51.444;-2.018;2023-02-14T06:48:40;102400.56;;;5.68;100.00
43436;BME280;36399;51.444;-2.018;2023-02-14T06:51:06;102397.03;;;5.67;100.00
43436;BME280;36399;51.444;-2.018;2023-02-14T06:53:32;102388.44;;;5.55;100.00
43436;BME280;36399;51.444;-2.018;2023-02-14T06:55:58;102395.38;;;5.55;100.00
43436;BME280;36399;51.444;-2.018;2023-02-14T06:58:24;102401.66;;;5.58;100.00
43436;BME280;36399;51.444;-2.018;2023-02-14T07:00:50;102395.88;;;5.49;100.00
43436;BME280;36399;51.444;-2.018;2023-02-14T07:03:16;102405.09;;;5.57;100.00
43436;BME280;36399;51.444;-2.018;2023-02-14T07:05:42;102399.34;;;5.63;100.00
43436;BME280;36399;51.444;-2.018;2023-02-14T07:08:10;102408.50;;;5.56;100.00
43436;BME280;36399;51.444;-2.018;2023-02-14T07:10:36;102411.50;;;5.49;100.00
43436;BME280;36399;51.444;-2.018;2023-02-14T07:13:02;102415.13;;;5.51;100.00
43436;BME280;36399;51.444;-2.018;2023-02-14T07:15:28;102414.69;;;5.58;100.00
43436;BME280;36399;51.444;-2.018;2023-02-14T07:17:54;102409.28;;;5.55;100.00
43436;BME280;36399;51.444;-2.018;2023-02-14T07:20:20;102415.59;;;5.59;100.00
43436;BME280;36399;51.444;-2.018;2023-02-14T07:22:46;102420.63;;;5.56;100.00
43436;BME280;36399;51.444;-2.018;2023-02-14T07:25:12;102424.31;;;5.59;100.00
43436;BME280;36399;51.444;-2.018;2023-02-14T07:27:39;102432.94;;;5.58;100.00
43436;BME280;36399;51.444;-2.018;2023-02-14T07:30:06;102434.53;;;5.56;100.00
43436;BME280;36399;51.444;-2.018;2023-02-14T07:32:33;102431.94;;;5.56;100.00
43436;BME280;36399;51.444;-2.018;2023-02-14T07:34:59;102429.75;;;5.49;100.00
43436;BME280;36399;51.444;-2.018;2023-02-14T07:37:25;102432.34;;;5.49;100.00
43436;BME280;36399;51.444;-2.018;2023-02-14T07:39:51;102438.38;;;5.48;100.00
43436;BME280;36399;51.444;-2.018;2023-02-14T07:42:17;102429.66;;;5.48;100.00
43436;BME280;36399;51.444;-2.018;2023-02-14T07:44:43;102439.56;;;5.53;100.00
43436;BME280;36399;51.444;-2.018;2023-02-14T07:47:12;102429.25;;;5.55;100.00
43436;BME280;36399;51.444;-2.018;2023-02-14T07:49:38;102420.72;;;5.44;100.00
43436;BME280;36399;51.444;-2.018;2023-02-14T07:52:04;102428.66;;;5.46;100.00
43436;BME280;36399;51.444;-2.018;2023-02-14T07:54:30;102426.03;;;5.46;100.00
43436;BME280;36399;51.444;-2.018;2023-02-14T07:56:55;102439.47;;;5.52;100.00
43436;BME280;36399;51.444;-2.018;2023-02-14T07:59:21;102436.84;;;5.52;100.00
43436;BME280;36399;51.444;-2.018;2023-02-14T08:01:47;102433.25;;;5.50;100.00
43436;BME280;36399;51.444;-2.018;2023-02-14T08:04:13;102435.56;;;5.45;100.00
43436;BME280;36399;51.444;-2.018;2023-02-14T08:06:40;102436.16;;;5.54;100.00
43436;BME280;36399;51.444;-2.018;2023-02-14T08:09:07;102430.75;;;5.51;100.00
43436;BME280;36399;51.444;-2.018;2023-02-14T08:11:35;102432.75;;;5.55;100.00
43436;BME280;36399;51.444;-2.018;2023-02-14T08:14:21;102426.50;;;5.66;100.00
43436;BME280;36399;51.444;-2.018;2023-02-14T08:16:47;102418.41;;;5.62;100.00
43436;BME280;36399;51.444;-2.018;2023-02-14T08:19:13;102418.72;;;5.53;100.00
43436;BME280;36399;51.444;-2.018;2023-02-14T08:21:39;102422.31;;;5.55;100.00
43436;BME280;36399;51.444;-2.018;2023-02-14T08:24:05;102421.28;;;5.66;100.00
43436;BME280;36399;51.444;-2.018;2023-02-14T08:26:31;102416.41;;;5.58;100.00
43436;BME280;36399;51.444;-2.018;2023-02-14T08:28:57;102415.91;;;5.63;100.00
43436;BME280;36399;51.444;-2.018;2023-02-14T08:31:28;102420.09;;;5.61;100.00
43436;BME280;36399;51.444;-2.018;2023-02-14T08:33:55;102419.69;;;5.68;100.00
43436;BME280;36399;51.444;-2.018;2023-02-14T08:36:21;102415.47;;;5.84;100.00
43436;BME280;36399;51.444;-2.018;2023-02-14T08:38:47;102416.41;;;6.12;100.00
43436;BME280;36399;51.444;-2.018;2023-02-14T08:41:17;102411.84;;;6.23;100.00
43436;BME280;36399;51.444;-2.018;2023-02-14T08:43:43;102412.66;;;6.22;100.00
43436;BME280;36399;51.444;-2.018;2023-02-14T08:46:10;102409.56;;;6.27;100.00
43436;BME280;36399;51.444;-2.018;2023-02-14T08:48:44;102411.34;;;6.28;100.00
43436;BME280;36399;51.444;-2.018;2023-02-14T08:51:12;102406.94;;;6.27;100.00
43436;BME280;36399;51.444;-2.018;2023-02-14T08:53:39;102400.34;;;6.19;100.00
43436;BME280;36399;51.444;-2.018;2023-02-14T08:56:08;102408.41;;;6.09;100.00
43436;BME280;36399;51.444;-2.018;2023-02-14T08:58:34;102397.94;;;5.94;100.00
43436;BME280;36399;51.444;-2.018;2023-02-14T09:01:07;102401.84;;;5.88;100.00
43436;BME280;36399;51.444;-2.018;2023-02-14T09:03:33;102401.84;;;5.88;100.00
43436;BME280;36399;51.444;-2.018;2023-02-14T09:06:06;102406.84;;;5.85;100.00
43436;BME280;36399;51.444;-2.018;2023-02-14T09:08:35;102396.44;;;5.85;100.00
43436;BME280;36399;51.444;-2.018;2023-02-14T09:11:12;102397.22;;;5.97;100.00
43436;BME280;36399;51.444;-2.018;2023-02-14T09:13:40;102401.16;;;5.90;100.00
43436;BME280;36399;51.444;-2.018;2023-02-14T09:16:07;102398.31;;;6.00;100.00
43436;BME280;36399;51.444;-2.018;2023-02-14T09:18:35;102399.94;;;6.26;100.00
43436;BME280;36399;51.444;-2.018;2023-02-14T09:21:01;102389.63;;;6.43;100.00
43436;BME280;36399;51.444;-2.018;2023-02-14T09:23:31;102392.47;;;6.32;100.00
43436;BME280;36399;51.444;-2.018;2023-02-14T09:26:01;102389.69;;;6.29;100.00
43436;BME280;36399;51.444;-2.018;2023-02-14T09:28:28;102386.28;;;6.30;100.00
43436;BME280;36399;51.444;-2.018;2023-02-14T09:30:54;102376.84;;;6.32;100.00
43436;BME280;36399;51.444;-2.018;2023-02-14T09:33:20;102370.81;;;6.33;100.00
43436;BME280;36399;51.444;-2.018;2023-02-14T09:35:47;102370.19;;;6.38;100.00
43436;BME280;36399;51.444;-2.018;2023-02-14T09:38:14;102363.53;;;6.43;100.00
43436;BME280;36399;51.444;-2.018;2023-02-14T09:40:42;102363.44;;;6.56;100.00
43436;BME280;36399;51.444;-2.018;2023-02-14T09:45:45;102361.47;;;6.96;100.00
43436;BME280;36399;51.444;-2.018;2023-02-14T09:48:25;102360.66;;;6.82;100.00
43436;BME280;36399;51.444;-2.018;2023-02-14T09:50:57;102353.81;;;6.55;100.00
43436;BME280;36399;51.444;-2.018;2023-02-14T09:53:31;102357.59;;;6.60;100.00
43436;BME280;36399;51.444;-2.018;2023-02-14T09:56:18;102351.28;;;6.71;100.00
43436;BME280;36399;51.444;-2.018;2023-02-14T10:01:41;102351.84;;;6.80;100.00
43436;BME280;36399;51.444;-2.018;2023-02-14T10:04:32;102349.09;;;7.08;100.00
43436;BME280;36399;51.444;-2.018;2023-02-14T10:07:26;102348.91;;;7.20;100.00
43436;BME280;36399;51.444;-2.018;2023-02-14T10:12:39;102338.78;;;7.26;100.00
43436;BME280;36399;51.444;-2.018;2023-02-14T10:15:20;102344.34;;;7.47;100.00
43436;BME280;36399;51.444;-2.018;2023-02-14T10:17:54;102328.38;;;7.89;100.00
43436;BME280;36399;51.444;-2.018;2023-02-14T10:20:35;102327.72;;;7.94;100.00
43436;BME280;36399;51.444;-2.018;2023-02-14T10:25:53;102318.09;;;8.59;100.00
43436;BME280;36399;51.444;-2.018;2023-02-14T10:28:31;102304.25;;;8.79;100.00
43436;BME280;36399;51.444;-2.018;2023-02-14T10:34:18;102262.81;;;9.43;100.00
43436;BME280;36399;51.444;-2.018;2023-02-14T10:40:20;102254.88;;;8.51;100.00
43436;BME280;36399;51.444;-2.018;2023-02-14T10:42:59;102252.72;;;8.61;100.00
43436;BME280;36399;51.444;-2.018;2023-02-14T10:45:57;102248.69;;;8.49;100.00
43436;BME280;36399;51.444;-2.018;2023-02-14T10:52:06;102239.94;;;8.49;100.00
43436;BME280;36399;51.444;-2.018;2023-02-14T10:54:39;102240.44;;;8.42;100.00
43436;BME280;36399;51.444;-2.018;2023-02-14T10:59:54;102232.16;;;8.86;100.00
43436;BME280;36399;51.444;-2.018;2023-02-14T11:02:26;102228.78;;;9.84;100.00
43436;BME280;36399;51.444;-2.018;2023-02-14T11:04:56;102206.91;;;9.83;100.00
43436;BME280;36399;51.444;-2.018;2023-02-14T11:07:22;102214.13;;;10.08;100.00
43436;BME280;36399;51.444;-2.018;2023-02-14T11:09:48;102209.06;;;9.92;100.00
43436;BME280;36399;51.444;-2.018;2023-02-14T11:12:31;102194.84;;;10.27;100.00
43436;BME280;36399;51.444;-2.018;2023-02-14T11:15:10;102190.31;;;10.66;100.00
43436;BME280;36399;51.444;-2.018;2023-02-14T11:17:44;102187.66;;;10.23;100.00
43436;BME280;36399;51.444;-2.018;2023-02-14T11:20:23;102195.97;;;10.12;100.00
43436;BME280;36399;51.444;-2.018;2023-02-14T11:22:49;102187.03;;;10.49;100.00
43436;BME280;36399;51.444;-2.018;2023-02-14T11:25:22;102184.09;;;10.41;100.00
43436;BME280;36399;51.444;-2.018;2023-02-14T11:27:53;102168.25;;;10.61;100.00
43436;BME280;36399;51.444;-2.018;2023-02-14T11:30:39;102171.00;;;11.32;100.00
43436;BME280;36399;51.444;-2.018;2023-02-14T11:33:21;102149.25;;;12.37;100.00
43436;BME280;36399;51.444;-2.018;2023-02-14T11:35:51;102139.00;;;13.31;100.00
43436;BME280;36399;51.444;-2.018;2023-02-14T11:38:26;102129.91;;;13.51;100.00
43436;BME280;36399;51.444;-2.018;2023-02-14T11:40:56;102123.50;;;13.12;100.00
43436;BME280;36399;51.444;-2.018;2023-02-14T11:43:32;102116.25;;;12.21;100.00
43436;BME280;36399;51.444;-2.018;2023-02-14T11:48:59;102109.09;;;11.66;100.00
43436;BME280;36399;51.444;-2.018;2023-02-14T11:51:38;102112.78;;;11.71;100.00
43436;BME280;36399;51.444;-2.018;2023-02-14T11:54:13;102111.25;;;11.52;100.00
43436;BME280;36399;51.444;-2.018;2023-02-14T11:59:36;102101.94;;;12.40;100.00
43436;BME280;36399;51.444;-2.018;2023-02-14T12:02:21;102094.28;;;13.04;100.00
43436;BME280;36399;51.444;-2.018;2023-02-14T12:07:43;102076.22;;;13.84;100.00
43436;BME280;36399;51.444;-2.018;2023-02-14T12:15:22;102068.91;;;14.44;100.00
43436;BME280;36399;51.444;-2.018;2023-02-14T12:17:52;102069.25;;;14.22;100.00
43436;BME280;36399;51.444;-2.018;2023-02-14T12:20:37;102063.47;;;14.76;100.00
43436;BME280;36399;51.444;-2.018;2023-02-14T12:23:19;102065.88;;;13.92;100.00
43436;BME280;36399;51.444;-2.018;2023-02-14T12:28:42;102047.47;;;13.60;100.00
43436;BME280;36399;51.444;-2.018;2023-02-14T12:31:11;102051.25;;;13.37;100.00
43436;BME280;36399;51.444;-2.018;2023-02-14T12:33:39;102048.19;;;13.89;100.00
43436;BME280;36399;51.444;-2.018;2023-02-14T12:41:22;102036.56;;;14.55;100.00
43436;BME280;36399;51.444;-2.018;2023-02-14T12:43:55;102031.44;;;14.61;100.00
43436;BME280;36399;51.444;-2.018;2023-02-14T12:46:39;102040.50;;;14.73;100.00
43436;BME280;36399;51.444;-2.018;2023-02-14T12:57:53;102032.97;;;14.13;100.00
43436;BME280;36399;51.444;-2.018;2023-02-14T13:00:28;102031.03;;;14.44;100.00
43436;BME280;36399;51.444;-2.018;2023-02-14T13:06:03;102022.75;;;14.68;100.00
43436;BME280;36399;51.444;-2.018;2023-02-14T13:09:27;102023.16;;;14.45;100.00
43436;BME280;36399;51.444;-2.018;2023-02-14T13:11:38;102017.06;;;14.92;100.00
43436;BME280;36399;51.444;-2.018;2023-02-14T13:16:54;102006.94;;;15.13;100.00
43436;BME280;36399;51.444;-2.018;2023-02-14T13:19:34;102009.56;;;15.11;100.00
43436;BME280;36399;51.444;-2.018;2023-02-14T13:22:05;102010.59;;;15.20;100.00
43436;BME280;36399;51.444;-2.018;2023-02-14T13:24:40;102012.94;;;15.53;100.00
43436;BME280;36399;51.444;-2.018;2023-02-14T13:27:12;102015.63;;;16.07;100.00
43436;BME280;36399;51.444;-2.018;2023-02-14T13:29:45;102006.91;;;16.76;100.00
43436;BME280;36399;51.444;-2.018;2023-02-14T13:32:14;102011.25;;;16.10;100.00
43436;BME280;36399;51.444;-2.018;2023-02-14T13:34:45;102006.38;;;16.39;100.00
43436;BME280;36399;51.444;-2.018;2023-02-14T13:37:17;101991.72;;;15.51;100.00
43436;BME280;36399;51.444;-2.018;2023-02-14T13:39:53;101997.16;;;15.09;100.00
43436;BME280;36399;51.444;-2.018;2023-02-14T13:48:17;101990.28;;;13.97;100.00
43436;BME280;36399;51.444;-2.018;2023-02-14T13:51:07;101986.38;;;13.45;100.00
43436;BME280;36399;51.444;-2.018;2023-02-14T13:53:47;101988.03;;;12.77;100.00
43436;BME280;36399;51.444;-2.018;2023-02-14T14:04:04;101987.44;;;11.98;100.00
43436;BME280;36399;51.444;-2.018;2023-02-14T14:17:39;101970.78;;;11.73;100.00
43436;BME280;36399;51.444;-2.018;2023-02-14T14:25:31;101956.59;;;11.67;100.00
43436;BME280;36399;51.444;-2.018;2023-02-14T14:27:59;101952.88;;;11.61;100.00
43436;BME280;36399;51.444;-2.018;2023-02-14T14:30:29;101964.03;;;11.54;100.00
43436;BME280;36399;51.444;-2.018;2023-02-14T14:33:27;101960.22;;;11.71;100.00
43436;BME280;36399;51.444;-2.018;2023-02-14T14:35:57;101963.31;;;11.85;100.00
43436;BME280;36399;51.444;-2.018;2023-02-14T14:38:25;101952.66;;;12.09;100.00
43436;BME280;36399;51.444;-2.018;2023-02-14T14:40:51;101948.91;;;12.00;100.00
43436;BME280;36399;51.444;-2.018;2023-02-14T14:43:26;101942.88;;;12.05;100.00
43436;BME280;36399;51.444;-2.018;2023-02-14T14:45:55;101944.00;;;12.13;100.00
43436;BME280;36399;51.444;-2.018;2023-02-14T14:50:58;101938.47;;;12.04;100.00
43436;BME280;36399;51.444;-2.018;2023-02-14T14:53:28;101937.31;;;12.24;100.00
43436;BME280;36399;51.444;-2.018;2023-02-14T14:55:56;101934.91;;;12.31;100.00